Time;durP1;ratioP1;P1;durP2;ratioP2;P2;SDS_P1;SDS_P2;PMS_P1;PMS_P2;Temp;Humidity;BMP_temperature;BMP_pressure;BME280_temperature;BME280_humidity;BME280_pressure;Samples;Min_cycle;Max_cycle;Signal;HPM_P1;HPM_P2
2022/01/10 00:01:16;;;;;;;14.35;8.18;;;6.30;52.80;;;;;;4941600;29;20038;-95
2022/01/10 00:03:45;;;;;;;12.70;7.78;;;6.30;52.80;;;;;;4948866;29;20517;-94
2022/01/10 00:08:55;;;;;;;15.63;8.45;;;6.30;52.80;;;;;;5465513;23;20048;-94
2022/01/10 00:11:21;;;;;;;16.63;8.73;;;6.30;52.80;;;;;;4906254;29;20053;-94
2022/01/10 00:13:47;;;;;;;14.52;8.85;;;6.30;52.90;;;;;;4906503;29;20036;-94
2022/01/10 00:16:13;;;;;;;14.30;8.30;;;6.30;52.80;;;;;;4926016;28;20035;-88
2022/01/10 00:18:39;;;;;;;16.35;8.30;;;6.30;52.70;;;;;;4919980;28;20046;-92
2022/01/10 00:21:05;;;;;;;12.55;8.32;;;6.30;52.70;;;;;;4974786;23;20029;-92
2022/01/10 00:23:31;;;;;;;12.75;7.95;;;6.30;52.80;;;;;;5020966;23;20052;-90
2022/01/10 00:25:57;;;;;;;13.30;8.07;;;6.30;52.70;;;;;;4936369;28;20508;-95
2022/01/10 00:28:23;;;;;;;15.20;9.02;;;6.30;52.60;;;;;;4937065;28;20039;-96
2022/01/10 00:30:49;;;;;;;10.95;8.05;;;6.30;52.60;;;;;;4936347;28;20038;-92
2022/01/10 00:33:15;;;;;;;13.30;8.85;;;6.30;52.60;;;;;;4951681;28;20425;-95
2022/01/10 00:35:41;;;;;;;14.73;9.43;;;6.30;52.60;;;;;;4938199;28;20047;-95
2022/01/10 00:38:07;;;;;;;11.25;8.05;;;6.30;52.60;;;;;;4935408;28;20028;-96
2022/01/10 00:40:33;;;;;;;13.65;7.97;;;6.30;52.60;;;;;;4918997;28;20027;-95
2022/01/10 00:42:59;;;;;;;13.10;8.00;;;6.20;52.50;;;;;;4930737;28;20494;-93
2022/01/10 00:45:27;;;;;;;12.35;7.95;;;6.20;52.50;;;;;;4912821;28;20050;-94
2022/01/10 00:47:59;;;;;;;13.55;8.27;;;6.20;52.50;;;;;;4916341;28;20584;-93
2022/01/10 00:50:26;;;;;;;11.50;7.13;;;6.20;52.50;;;;;;4946984;28;20058;-93
2022/01/10 00:52:53;;;;;;;10.88;7.15;;;6.20;52.50;;;;;;4911598;28;20047;-93
2022/01/10 00:55:19;;;;;;;11.88;6.97;;;6.20;52.50;;;;;;4915484;28;20063;-94
2022/01/10 00:57:45;;;;;;;11.95;7.25;;;6.20;52.50;;;;;;4912366;28;20027;-94
2022/01/10 01:00:13;;;;;;;10.82;7.22;;;6.20;52.50;;;;;;4917678;28;20034;-94
2022/01/10 01:02:40;;;;;;;14.05;8.10;;;6.20;52.50;;;;;;4918898;28;20063;-93
2022/01/10 01:05:09;;;;;;;10.55;6.55;;;6.20;52.40;;;;;;4917780;28;20051;-93
2022/01/10 01:07:37;;;;;;;11.15;7.28;;;6.20;52.40;;;;;;4931743;28;20105;-93
2022/01/10 01:13:08;;;;;;;10.45;6.45;;;6.20;52.40;;;;;;4942009;28;20058;-91
2022/01/10 01:15:45;;;;;;;11.63;7.28;;;6.20;52.40;;;;;;4927175;28;20529;-90
2022/01/10 01:18:20;;;;;;;10.18;7.20;;;6.20;52.30;;;;;;4935707;28;20458;-88
2022/01/10 01:24:01;;;;;;;10.88;7.55;;;6.20;52.30;;;;;;4967531;28;20043;-91
2022/01/10 01:26:16;;;;;;;9.95;6.40;;;6.20;52.40;;;;;;4952220;28;20039;-94
2022/01/10 01:28:42;;;;;;;10.00;6.45;;;6.20;52.30;;;;;;4947353;28;20085;-94
2022/01/10 01:31:08;;;;;;;9.93;6.65;;;6.20;52.40;;;;;;4938468;28;20027;-92
2022/01/10 01:36:31;;;;;;;12.02;6.95;;;6.10;52.40;;;;;;5344718;23;20171;-90
2022/01/10 01:43:59;;;;;;;10.82;6.57;;;6.10;52.30;;;;;;4911440;29;20033;-95
2022/01/10 01:46:26;;;;;;;10.75;6.07;;;6.10;52.30;;;;;;4879568;29;20043;-92
2022/01/10 01:48:54;;;;;;;8.63;5.60;;;6.10;52.30;;;;;;4897403;29;20040;-91
2022/01/10 01:51:24;;;;;;;10.50;6.43;;;6.10;52.30;;;;;;4877360;29;20103;-92
2022/01/10 01:53:52;;;;;;;10.05;5.80;;;6.10;52.30;;;;;;4881697;29;20410;-93
2022/01/10 01:56:19;;;;;;;11.32;6.10;;;6.10;52.30;;;;;;4896901;29;20092;-94
2022/01/10 01:58:46;;;;;;;10.95;5.93;;;6.10;52.30;;;;;;4877303;29;20136;-92
2022/01/10 02:01:16;;;;;;;8.38;5.68;;;6.10;52.30;;;;;;4880317;29;20032;-94
2022/01/10 02:03:43;;;;;;;8.48;5.70;;;6.10;52.30;;;;;;4893608;29;20175;-95
2022/01/10 02:06:12;;;;;;;8.93;5.90;;;6.10;52.30;;;;;;4891868;29;20131;-93
2022/01/10 02:08:39;;;;;;;9.95;6.40;;;6.10;52.40;;;;;;4908702;29;20518;-94
2022/01/10 02:11:08;;;;;;;8.82;5.97;;;6.10;52.50;;;;;;4878843;29;20700;-92
2022/01/10 02:13:34;;;;;;;9.38;5.85;;;6.10;53.10;;;;;;4883477;29;20064;-93
2022/01/10 02:16:10;;;;;;;11.63;6.28;;;6.10;53.10;;;;;;4890872;29;20032;-91
2022/01/10 02:18:39;;;;;;;8.52;5.38;;;6.00;52.50;;;;;;4907478;29;20028;-93
2022/01/10 02:21:05;;;;;;;7.97;5.22;;;6.10;52.50;;;;;;4903368;28;20047;-89
2022/01/10 02:23:35;;;;;;;8.13;5.75;;;6.10;52.40;;;;;;4912975;29;20075;-93
2022/01/10 02:26:06;;;;;;;11.23;6.13;;;6.10;52.40;;;;;;4896750;29;20036;-91
2022/01/10 02:28:35;;;;;;;11.35;6.10;;;6.10;52.30;;;;;;4891643;29;20511;-92
2022/01/10 02:31:01;;;;;;;11.15;6.30;;;6.00;52.30;;;;;;4875140;29;20592;-91
2022/01/10 02:33:30;;;;;;;8.93;5.97;;;6.10;52.30;;;;;;4879132;29;20584;-92
2022/01/10 02:38:51;;;;;;;10.18;5.97;;;6.00;52.30;;;;;;4905369;29;20028;-91
2022/01/10 02:41:24;;;;;;;8.73;5.40;;;6.00;52.30;;;;;;4905955;29;20063;-90
2022/01/10 02:43:51;;;;;;;9.80;5.88;;;6.00;52.30;;;;;;4893518;29;20040;-89
2022/01/10 02:46:19;;;;;;;9.95;5.70;;;6.00;52.30;;;;;;4890253;29;20043;-90
2022/01/10 02:48:45;;;;;;;9.73;6.35;;;6.00;52.20;;;;;;4877268;29;20043;-90
2022/01/10 02:51:12;;;;;;;7.82;5.32;;;6.00;52.30;;;;;;4879010;29;20040;-91
2022/01/10 02:53:38;;;;;;;9.32;5.32;;;6.00;52.30;;;;;;4874126;29;20182;-89
2022/01/10 02:56:04;;;;;;;10.32;5.50;;;6.00;52.30;;;;;;4889443;29;20032;-89
2022/01/10 02:58:30;;;;;;;8.55;5.47;;;6.00;52.30;;;;;;4890717;29;20028;-90
2022/01/10 03:00:56;;;;;;;10.80;5.47;;;6.00;52.30;;;;;;4889384;29;20415;-90
2022/01/10 03:03:30;;;;;;;10.38;5.93;;;6.00;52.30;;;;;;4876715;29;20036;-90
2022/01/10 03:05:57;;;;;;;9.27;5.40;;;6.00;52.30;;;;;;4894865;29;20142;-91
2022/01/10 03:08:25;;;;;;;9.63;6.13;;;6.00;52.20;;;;;;4877870;29;20032;-90
2022/01/10 03:10:51;;;;;;;10.68;5.90;;;6.00;52.90;;;;;;4889933;29;20036;-91
2022/01/10 03:13:17;;;;;;;10.73;6.35;;;6.00;53.00;;;;;;4872650;29;20036;-91
2022/01/10 03:15:43;;;;;;;11.25;6.38;;;6.00;52.30;;;;;;4896189;29;20036;-90
2022/01/10 03:18:09;;;;;;;11.75;6.65;;;6.00;52.30;;;;;;4908503;29;21010;-88
2022/01/10 03:20:35;;;;;;;12.00;6.63;;;6.00;52.30;;;;;;4906038;29;20032;-90
2022/01/10 03:23:01;;;;;;;10.88;5.80;;;6.00;52.40;;;;;;4900082;29;20515;-90
2022/01/10 03:25:28;;;;;;;10.98;6.55;;;6.00;52.40;;;;;;4875673;29;20031;-90
2022/01/10 03:27:58;;;;;;;12.10;6.32;;;6.00;52.50;;;;;;4914699;29;20063;-89
2022/01/10 03:30:24;;;;;;;11.93;5.72;;;6.00;52.40;;;;;;4906593;29;20047;-88
2022/01/10 03:32:51;;;;;;;12.00;6.10;;;6.00;52.40;;;;;;4872725;29;20039;-86
2022/01/10 03:35:28;;;;;;;11.48;6.25;;;5.90;52.60;;;;;;4878558;29;20105;-86
2022/01/10 03:37:54;;;;;;;10.82;6.05;;;6.00;53.00;;;;;;4874571;29;20043;-88
2022/01/10 03:40:22;;;;;;;9.07;5.53;;;6.00;53.10;;;;;;4888720;29;20060;-88
2022/01/10 03:42:49;;;;;;;11.63;5.50;;;6.00;53.40;;;;;;4889510;29;20031;-87
2022/01/10 03:45:15;;;;;;;9.68;5.70;;;6.00;53.40;;;;;;4874001;29;20040;-89
2022/01/10 03:47:41;;;;;;;10.75;5.60;;;6.00;53.50;;;;;;4874815;29;20553;-88
2022/01/10 03:50:08;;;;;;;9.00;5.93;;;6.00;53.60;;;;;;4874317;29;20067;-88
2022/01/10 03:52:35;;;;;;;12.07;5.45;;;6.00;53.70;;;;;;4888541;29;20646;-88
2022/01/10 03:55:01;;;;;;;10.85;5.28;;;6.10;53.70;;;;;;4887086;29;20032;-88
2022/01/10 03:57:27;;;;;;;9.15;5.10;;;6.10;53.80;;;;;;4886008;29;20032;-87
2022/01/10 03:59:52;;;;;;;9.82;5.50;;;6.10;53.80;;;;;;4888501;29;20441;-88
2022/01/10 04:02:19;;;;;;;7.57;4.45;;;6.10;53.90;;;;;;4902726;29;20043;-88
2022/01/10 04:04:45;;;;;;;9.90;5.75;;;6.10;53.70;;;;;;4874642;29;20055;-87
2022/01/10 04:07:12;;;;;;;11.65;5.43;;;6.10;53.70;;;;;;4887244;29;20067;-88
2022/01/10 04:09:38;;;;;;;9.65;5.13;;;6.10;53.70;;;;;;4873559;29;20529;-88
2022/01/10 04:12:04;;;;;;;7.65;4.63;;;6.20;53.80;;;;;;4891934;29;20032;-88
2022/01/10 04:14:31;;;;;;;7.15;4.95;;;6.20;53.70;;;;;;4909020;29;20188;-87
2022/01/10 04:16:57;;;;;;;9.05;5.13;;;6.20;53.80;;;;;;4891166;29;20060;-89
2022/01/10 04:19:23;;;;;;;5.57;4.05;;;6.20;53.70;;;;;;4885616;29;20039;-88
2022/01/10 04:21:49;;;;;;;6.55;4.45;;;6.20;53.70;;;;;;4880615;29;20036;-87
2022/01/10 04:24:15;;;;;;;6.70;4.53;;;6.20;53.70;;;;;;4898627;29;20039;-86
2022/01/10 04:26:42;;;;;;;8.95;5.00;;;6.20;53.60;;;;;;4893159;29;20043;-86
2022/01/10 04:29:11;;;;;;;8.10;5.03;;;6.20;53.70;;;;;;4894507;29;20039;-92
2022/01/10 04:31:37;;;;;;;7.22;4.57;;;6.20;53.70;;;;;;4893907;29;20040;-90
2022/01/10 04:34:03;;;;;;;7.88;5.05;;;6.20;53.80;;;;;;4887856;29;20511;-85
2022/01/10 04:36:29;;;;;;;7.82;4.90;;;6.20;53.90;;;;;;4873940;29;20395;-87
2022/01/10 04:38:55;;;;;;;8.85;5.35;;;6.30;53.80;;;;;;4875398;29;20066;-87
2022/01/10 04:41:21;;;;;;;8.43;5.20;;;6.30;53.80;;;;;;4853735;29;20170;-87
2022/01/10 04:43:47;;;;;;;7.93;4.28;;;6.30;53.80;;;;;;4851476;29;20213;-87
2022/01/10 04:46:13;;;;;;;8.50;5.03;;;6.30;53.70;;;;;;4868000;29;20041;-86
2022/01/10 04:48:39;;;;;;;7.80;4.75;;;6.30;53.70;;;;;;4882397;29;20040;-86
2022/01/10 04:51:12;;;;;;;8.73;5.10;;;6.30;53.60;;;;;;4870403;29;20049;-85
2022/01/10 04:53:47;;;;;;;7.65;4.90;;;6.30;53.40;;;;;;4867780;29;20436;-87
2022/01/10 04:56:16;;;;;;;9.55;5.80;;;6.30;53.40;;;;;;4881686;29;20029;-86
2022/01/10 04:58:45;;;;;;;9.25;6.05;;;6.30;53.00;;;;;;4874087;29;20467;-86
2022/01/10 05:01:12;;;;;;;10.93;5.10;;;6.20;52.90;;;;;;4871669;29;20032;-86
2022/01/10 05:03:38;;;;;;;8.07;4.78;;;6.20;52.70;;;;;;4870928;29;20041;-87
2022/01/10 05:06:05;;;;;;;8.48;5.07;;;6.20;52.60;;;;;;4858250;29;20073;-86
2022/01/10 05:08:31;;;;;;;8.43;5.75;;;6.20;52.60;;;;;;4874179;29;20092;-87
2022/01/10 05:10:59;;;;;;;7.78;4.97;;;6.20;52.50;;;;;;4872408;29;20076;-86
2022/01/10 05:13:25;;;;;;;7.93;5.10;;;6.20;52.50;;;;;;4873110;29;20037;-86
2022/01/10 05:15:53;;;;;;;7.75;4.88;;;6.20;52.50;;;;;;4873841;29;20029;-86
2022/01/10 05:18:22;;;;;;;8.68;5.60;;;6.20;52.50;;;;;;4869582;29;20037;-86
2022/01/10 05:20:50;;;;;;;9.70;5.43;;;6.20;52.50;;;;;;4889868;29;20104;-85
2022/01/10 05:23:16;;;;;;;5.82;4.80;;;6.20;52.50;;;;;;4879688;29;20041;-85
2022/01/10 05:25:42;;;;;;;9.18;5.38;;;6.20;52.50;;;;;;4893443;29;20056;-85
2022/01/10 05:28:13;;;;;;;9.88;5.20;;;6.10;52.50;;;;;;4872661;29;20036;-86
2022/01/10 05:30:40;;;;;;;8.02;4.88;;;6.10;52.50;;;;;;4873894;29;20029;-86
2022/01/10 05:33:08;;;;;;;8.68;5.18;;;6.10;52.50;;;;;;4857557;29;20085;-85
2022/01/10 05:35:40;;;;;;;7.68;5.47;;;6.10;52.50;;;;;;4883700;29;20044;-85
2022/01/10 05:38:07;;;;;;;6.72;4.40;;;6.10;52.40;;;;;;4871152;29;20048;-84
2022/01/10 05:40:33;;;;;;;8.05;5.03;;;6.10;52.40;;;;;;4867542;29;20076;-86
2022/01/10 05:43:01;;;;;;;8.25;4.78;;;6.10;52.50;;;;;;4889257;29;20128;-86
2022/01/10 05:45:29;;;;;;;8.13;5.10;;;6.10;52.50;;;;;;4891899;29;20439;-87
2022/01/10 05:47:56;;;;;;;8.38;4.20;;;6.10;52.50;;;;;;4879833;29;20105;-86
2022/01/10 05:50:33;;;;;;;8.15;4.72;;;6.10;52.50;;;;;;4873464;29;20036;-87
2022/01/10 05:53:01;;;;;;;7.57;4.80;;;6.10;52.40;;;;;;4889992;29;20683;-86
2022/01/10 05:55:28;;;;;;;7.85;5.18;;;6.00;52.40;;;;;;4891899;29;20046;-90
2022/01/10 05:57:54;;;;;;;6.22;4.80;;;6.00;52.40;;;;;;4895406;29;20107;-92
2022/01/10 06:00:21;;;;;;;6.35;4.25;;;6.00;52.40;;;;;;4892752;29;20036;-89
2022/01/10 06:02:47;;;;;;;6.78;4.47;;;6.00;52.40;;;;;;4896427;29;20040;-89
2022/01/10 06:05:30;;;;;;;6.90;4.47;;;6.00;52.30;;;;;;4883295;29;20047;-89
2022/01/10 06:07:59;;;;;;;6.90;4.72;;;6.00;52.30;;;;;;4883645;29;20426;-89
2022/01/10 06:10:25;;;;;;;8.27;4.00;;;6.00;52.20;;;;;;4901971;29;20042;-96
2022/01/10 06:12:51;;;;;;;6.82;3.90;;;6.00;52.30;;;;;;4899251;29;20032;-94
2022/01/10 06:15:18;;;;;;;6.25;3.90;;;6.00;52.30;;;;;;4886047;29;20036;-93
2022/01/10 06:17:45;;;;;;;5.35;4.15;;;6.00;52.20;;;;;;4889732;29;20040;-91
2022/01/10 06:20:11;;;;;;;6.30;4.28;;;6.00;52.30;;;;;;4902474;29;20028;-94
2022/01/10 06:22:37;;;;;;;7.00;3.63;;;6.00;52.20;;;;;;4899793;29;20036;-88
2022/01/10 06:25:06;;;;;;;6.55;3.70;;;6.00;52.30;;;;;;4917346;29;20139;-93
2022/01/10 06:27:32;;;;;;;5.78;4.13;;;5.90;52.30;;;;;;4906153;29;20067;-91
2022/01/10 06:29:59;;;;;;;5.95;3.95;;;6.00;52.30;;;;;;4905303;29;20037;-91
2022/01/10 06:32:26;;;;;;;6.65;4.13;;;6.00;52.40;;;;;;4895908;29;20043;-93
2022/01/10 06:34:52;;;;;;;5.63;3.58;;;5.90;52.30;;;;;;4891935;29;20043;-93
2022/01/10 06:37:20;;;;;;;5.88;4.03;;;5.90;52.30;;;;;;4901299;29;20048;-91
2022/01/10 06:39:48;;;;;;;6.93;4.07;;;5.90;52.20;;;;;;4877560;29;20151;-90
2022/01/10 06:42:16;;;;;;;6.40;4.22;;;6.00;52.40;;;;;;4886853;29;20044;-93
2022/01/10 06:44:42;;;;;;;6.53;3.63;;;6.00;52.40;;;;;;4900223;29;20035;-91
2022/01/10 06:47:12;;;;;;;6.22;4.05;;;6.00;52.30;;;;;;4941070;23;20060;-90
2022/01/10 06:49:38;;;;;;;8.10;4.45;;;5.90;52.30;;;;;;4920015;28;20039;-90
2022/01/10 06:52:05;;;;;;;5.50;3.70;;;5.90;52.30;;;;;;5028056;23;20119;-91
2022/01/10 06:54:31;;;;;;;5.65;3.58;;;5.90;52.30;;;;;;4929326;29;20099;-92
2022/01/10 06:56:58;;;;;;;7.05;3.80;;;5.90;52.30;;;;;;4952503;23;20047;-92
2022/01/10 06:59:26;;;;;;;6.80;4.20;;;5.90;52.30;;;;;;4956442;28;20033;-91
2022/01/10 07:01:53;;;;;;;6.53;3.97;;;5.90;52.20;;;;;;4995745;23;20053;-90
2022/01/10 07:04:29;;;;;;;6.45;3.80;;;5.90;52.20;;;;;;4926657;23;20052;-95
2022/01/10 07:06:59;;;;;;;5.65;3.95;;;5.90;52.20;;;;;;4913073;29;20041;-94
2022/01/10 07:09:28;;;;;;;6.75;3.70;;;5.90;52.10;;;;;;4898249;29;20028;-91
2022/01/10 07:12:01;;;;;;;4.75;3.40;;;5.90;52.00;;;;;;4894819;29;20043;-92
2022/01/10 07:14:39;;;;;;;5.25;3.55;;;5.90;52.00;;;;;;4909800;29;20039;-91
2022/01/10 07:17:08;;;;;;;7.55;4.38;;;5.90;52.10;;;;;;4905184;29;20780;-92
2022/01/10 07:19:34;;;;;;;5.45;3.47;;;5.90;52.10;;;;;;4898232;29;20040;-92
2022/01/10 07:22:01;;;;;;;4.25;3.10;;;5.90;52.10;;;;;;4898900;29;20057;-92
2022/01/10 07:24:27;;;;;;;5.10;3.15;;;5.90;52.10;;;;;;4905564;29;20034;-91
2022/01/10 07:26:53;;;;;;;7.25;3.75;;;5.90;52.10;;;;;;4939433;29;20075;-90
2022/01/10 07:29:19;;;;;;;6.95;3.28;;;5.90;52.10;;;;;;4924988;29;20052;-92
2022/01/10 07:31:45;;;;;;;6.35;2.75;;;5.90;52.10;;;;;;4925516;29;20039;-90
2022/01/10 07:34:14;;;;;;;4.72;3.20;;;5.90;52.10;;;;;;4917719;29;20043;-89
2022/01/10 07:36:40;;;;;;;5.32;3.50;;;5.90;52.20;;;;;;4900941;29;20028;-91
2022/01/10 07:39:07;;;;;;;5.00;3.53;;;5.90;52.20;;;;;;4899921;29;20131;-90
2022/01/10 07:41:33;;;;;;;5.00;3.13;;;5.90;52.10;;;;;;4910373;29;20515;-91
2022/01/10 07:43:59;;;;;;;6.28;3.70;;;5.90;52.00;;;;;;4905825;29;20036;-92
2022/01/10 07:46:26;;;;;;;5.03;3.03;;;5.90;52.00;;;;;;4889943;29;20038;-92
2022/01/10 07:48:54;;;;;;;7.28;3.17;;;5.90;52.00;;;;;;4920603;29;20563;-92
2022/01/10 07:51:22;;;;;;;4.10;2.83;;;5.90;51.90;;;;;;4903457;29;20115;-92
2022/01/10 07:53:48;;;;;;;4.78;3.30;;;5.90;52.00;;;;;;4905510;29;20048;-90
2022/01/10 07:56:14;;;;;;;6.90;3.35;;;5.90;52.00;;;;;;4919585;29;20028;-91
2022/01/10 07:58:40;;;;;;;4.40;2.83;;;5.90;51.90;;;;;;4904205;29;20495;-91
2022/01/10 08:01:06;;;;;;;3.85;2.78;;;5.90;51.80;;;;;;4906529;29;20140;-91
2022/01/10 08:03:32;;;;;;;3.63;2.60;;;5.90;51.90;;;;;;4916047;29;20150;-90
2022/01/10 08:05:59;;;;;;;4.32;2.95;;;5.80;51.80;;;;;;4924262;29;20035;-92
2022/01/10 08:08:28;;;;;;;5.13;3.17;;;5.80;51.80;;;;;;4895369;29;20130;-91
2022/01/10 08:10:54;;;;;;;5.63;3.08;;;5.90;51.90;;;;;;4890765;29;20036;-93
2022/01/10 08:13:20;;;;;;;5.50;3.20;;;5.80;51.80;;;;;;4892525;29;20035;-93
2022/01/10 08:15:46;;;;;;;5.63;3.45;;;5.90;52.00;;;;;;4891178;29;20032;-91
2022/01/10 08:18:12;;;;;;;5.10;3.60;;;5.90;52.00;;;;;;4925301;29;20494;-91
2022/01/10 08:20:38;;;;;;;6.05;3.30;;;5.90;52.00;;;;;;4895572;29;20036;-92
2022/01/10 08:23:04;;;;;;;5.13;2.70;;;5.90;52.00;;;;;;4890813;29;20035;-92
2022/01/10 08:25:30;;;;;;;6.03;3.33;;;5.90;52.00;;;;;;4890020;29;20078;-91
2022/01/10 08:27:56;;;;;;;5.55;3.30;;;5.90;52.00;;;;;;4918810;29;20025;-92
2022/01/10 08:30:22;;;;;;;5.32;3.00;;;5.90;51.90;;;;;;4931823;28;20103;-90
2022/01/10 08:32:50;;;;;;;5.22;3.03;;;5.90;52.00;;;;;;4923128;29;20118;-90
2022/01/10 08:35:17;;;;;;;4.65;2.95;;;5.90;52.00;;;;;;4947907;29;20036;-89
2022/01/10 08:37:44;;;;;;;4.65;3.10;;;5.90;52.00;;;;;;4943013;29;20035;-89
2022/01/10 08:40:11;;;;;;;4.18;3.13;;;5.90;52.00;;;;;;4906187;29;20035;-89
2022/01/10 08:42:37;;;;;;;4.82;3.22;;;5.90;52.00;;;;;;4904981;29;20510;-91
2022/01/10 08:45:05;;;;;;;5.05;3.40;;;6.00;52.10;;;;;;4935295;29;20036;-93
2022/01/10 08:47:31;;;;;;;4.95;3.20;;;6.00;52.10;;;;;;4900418;29;20039;-91
2022/01/10 08:49:57;;;;;;;4.05;2.97;;;5.90;52.00;;;;;;4903316;29;20044;-90
2022/01/10 08:52:31;;;;;;;6.28;3.40;;;6.00;51.90;;;;;;4934246;29;20039;-92
2022/01/10 08:54:57;;;;;;;4.57;2.50;;;6.00;51.80;;;;;;4917476;29;20054;-92
2022/01/10 08:57:24;;;;;;;4.07;2.83;;;5.90;51.60;;;;;;4905522;29;20482;-92
2022/01/10 08:59:50;;;;;;;6.38;3.47;;;6.00;52.10;;;;;;4934091;29;20028;-91
2022/01/10 09:02:16;;;;;;;4.90;2.92;;;5.90;51.30;;;;;;4931776;29;20042;-88
2022/01/10 09:04:42;;;;;;;5.82;2.90;;;5.90;51.30;;;;;;4927596;29;20236;-88
2022/01/10 09:07:08;;;;;;;4.72;3.10;;;6.00;53.70;;;;;;4932057;29;20426;-88
2022/01/10 09:09:35;;;;;;;5.03;3.42;;;6.10;57.30;;;;;;4915627;29;20125;-87
2022/01/10 09:12:02;;;;;;;7.43;3.58;;;6.10;58.60;;;;;;4908794;29;20463;-86
2022/01/10 09:14:28;;;;;;;4.38;3.15;;;6.20;58.60;;;;;;4928881;29;20036;-87
2022/01/10 09:16:54;;;;;;;5.53;2.53;;;6.30;58.60;;;;;;4913698;29;20414;-88
2022/01/10 09:19:19;;;;;;;5.43;2.72;;;6.40;58.40;;;;;;4898349;29;20035;-84
2022/01/10 09:21:47;;;;;;;7.15;2.78;;;6.50;58.40;;;;;;4926358;29;20031;-86
2022/01/10 09:24:13;;;;;;;5.72;2.95;;;6.60;58.00;;;;;;4926835;29;20028;-86
2022/01/10 09:26:40;;;;;;;4.78;3.13;;;6.60;57.00;;;;;;4897591;29;21239;-85
2022/01/10 09:29:06;;;;;;;3.78;2.70;;;6.70;56.30;;;;;;4909406;29;20040;-84
2022/01/10 09:31:33;;;;;;;3.40;2.22;;;6.70;55.40;;;;;;4943980;29;20035;-85
2022/01/10 09:33:59;;;;;;;4.65;2.70;;;6.70;54.70;;;;;;4934111;29;20035;-85
2022/01/10 09:36:28;;;;;;;4.05;2.50;;;6.70;54.00;;;;;;4952456;29;20032;-84
2022/01/10 09:38:57;;;;;;;4.20;2.45;;;6.70;53.60;;;;;;4927068;29;20032;-83
2022/01/10 09:41:24;;;;;;;5.30;2.83;;;6.70;53.20;;;;;;4926978;29;20526;-84
2022/01/10 09:43:53;;;;;;;3.63;2.45;;;6.70;53.10;;;;;;4907525;29;20032;-84
2022/01/10 09:46:19;;;;;;;5.60;3.05;;;6.70;52.80;;;;;;4913770;29;20043;-85
2022/01/10 09:48:46;;;;;;;4.35;2.92;;;6.70;52.70;;;;;;4914334;29;20126;-85
2022/01/10 09:51:12;;;;;;;5.25;2.58;;;6.80;52.80;;;;;;4897359;29;20102;-85
2022/01/10 09:53:38;;;;;;;4.10;2.40;;;6.70;52.60;;;;;;4926129;29;20193;-85
2022/01/10 09:56:04;;;;;;;4.15;2.42;;;6.70;52.50;;;;;;4890602;29;20130;-85
2022/01/10 09:58:30;;;;;;;3.90;2.20;;;6.70;52.40;;;;;;4907006;29;20495;-85
2022/01/10 10:00:57;;;;;;;4.57;2.72;;;6.70;52.30;;;;;;4909464;29;20042;-85
2022/01/10 10:03:24;;;;;;;3.58;2.47;;;6.70;52.30;;;;;;4892681;29;20067;-86
2022/01/10 10:05:54;;;;;;;4.07;2.45;;;6.70;52.10;;;;;;4906481;29;20031;-85
2022/01/10 10:08:26;;;;;;;4.55;2.40;;;6.70;52.20;;;;;;4892213;29;20039;-86
2022/01/10 10:10:53;;;;;;;4.03;2.38;;;6.70;52.10;;;;;;4893826;29;20058;-84
2022/01/10 10:13:19;;;;;;;3.60;2.45;;;6.70;52.00;;;;;;4891627;29;20119;-85
2022/01/10 10:15:46;;;;;;;3.80;2.45;;;6.70;52.00;;;;;;4897426;29;20123;-85
2022/01/10 10:18:15;;;;;;;3.88;2.55;;;6.70;52.00;;;;;;4923888;29;20038;-85
2022/01/10 10:20:43;;;;;;;4.45;1.98;;;6.70;51.80;;;;;;4906956;29;20060;-85
2022/01/10 10:23:15;;;;;;;3.78;2.10;;;6.70;51.80;;;;;;4890721;29;20499;-86
2022/01/10 10:25:52;;;;;;;5.30;2.15;;;6.60;51.70;;;;;;4925893;29;20035;-87
2022/01/10 10:28:18;;;;;;;3.47;2.10;;;6.70;51.70;;;;;;4909115;29;20035;-86
2022/01/10 10:30:45;;;;;;;3.70;2.17;;;6.70;51.80;;;;;;4905864;29;20046;-86
2022/01/10 10:33:17;;;;;;;3.17;2.13;;;6.60;51.70;;;;;;4919743;29;20046;-86
2022/01/10 10:35:44;;;;;;;6.95;2.75;;;6.60;51.60;;;;;;4927833;29;20294;-85
2022/01/10 10:38:10;;;;;;;2.67;2.00;;;6.70;51.80;;;;;;4948908;29;20068;-86
2022/01/10 10:40:44;;;;;;;4.18;2.15;;;6.60;51.60;;;;;;4901537;29;20036;-86
2022/01/10 10:43:10;;;;;;;3.08;2.00;;;6.60;51.70;;;;;;4894649;29;20406;-85
2022/01/10 10:45:37;;;;;;;5.43;2.10;;;6.60;51.80;;;;;;4926053;29;20039;-86
2022/01/10 10:48:07;;;;;;;4.43;2.22;;;6.60;51.70;;;;;;4906521;29;20035;-86
2022/01/10 10:50:46;;;;;;;4.57;2.55;;;6.60;51.80;;;;;;4893969;29;20046;-85
2022/01/10 10:53:14;;;;;;;3.53;2.20;;;6.60;51.70;;;;;;4923250;29;20036;-84
2022/01/10 10:55:42;;;;;;;3.42;2.08;;;6.60;51.70;;;;;;4889711;29;20032;-86
2022/01/10 10:58:11;;;;;;;2.97;2.13;;;6.70;51.70;;;;;;4924022;29;20060;-85
2022/01/10 11:00:38;;;;;;;3.17;2.45;;;6.70;52.30;;;;;;4908446;29;20421;-85
2022/01/10 11:03:05;;;;;;;3.65;2.10;;;6.70;51.70;;;;;;4908607;29;20062;-85
2022/01/10 11:05:33;;;;;;;5.03;1.98;;;6.70;51.80;;;;;;4906938;29;20040;-85
2022/01/10 11:07:59;;;;;;;3.22;2.20;;;6.70;51.70;;;;;;4891874;29;20046;-85
2022/01/10 11:10:25;;;;;;;6.43;2.97;;;6.70;51.70;;;;;;4895583;29;20042;-86
2022/01/10 11:12:54;;;;;;;4.50;2.30;;;6.70;51.60;;;;;;4903922;29;20040;-85
2022/01/10 11:15:23;;;;;;;4.00;2.03;;;6.70;51.70;;;;;;4926663;29;20036;-86
2022/01/10 11:17:49;;;;;;;2.63;1.85;;;6.70;51.60;;;;;;4923780;29;20407;-86
2022/01/10 11:20:21;;;;;;;4.90;2.30;;;6.70;51.50;;;;;;4907708;29;20123;-85
2022/01/10 11:22:58;;;;;;;3.03;1.90;;;6.70;51.50;;;;;;4910555;29;20043;-86
2022/01/10 11:25:28;;;;;;;4.20;2.45;;;6.70;51.50;;;;;;4891541;29;20079;-85
2022/01/10 11:28:01;;;;;;;3.35;2.15;;;6.70;51.50;;;;;;4923372;29;20035;-85
2022/01/10 11:30:31;;;;;;;3.67;1.58;;;6.60;51.40;;;;;;4923916;29;20132;-86
2022/01/10 11:33:08;;;;;;;3.15;2.22;;;6.60;51.50;;;;;;4908890;29;20031;-85
2022/01/10 11:35:41;;;;;;;3.15;2.20;;;6.60;51.40;;;;;;4924019;29;20035;-85
2022/01/10 11:38:18;;;;;;;3.42;1.80;;;6.60;51.40;;;;;;4908218;29;20035;-85
2022/01/10 11:40:49;;;;;;;4.82;2.75;;;6.60;51.40;;;;;;4925235;29;20123;-85
2022/01/10 11:43:41;;;;;;;3.30;2.10;;;6.60;51.50;;;;;;4924751;29;20558;-86
2022/01/10 11:46:22;;;;;;;3.72;2.63;;;6.60;51.50;;;;;;4925904;29;20036;-84
2022/01/10 11:48:55;;;;;;;3.97;2.25;;;6.60;51.50;;;;;;4925966;29;20050;-84
2022/01/10 11:51:25;;;;;;;4.47;2.03;;;6.60;51.50;;;;;;4922647;29;20032;-84
2022/01/10 11:53:54;;;;;;;4.32;2.88;;;6.60;51.40;;;;;;4891378;29;20478;-84
2022/01/10 11:56:30;;;;;;;6.40;2.92;;;6.50;51.50;;;;;;4923428;29;20421;-86
2022/01/10 11:59:14;;;;;;;3.65;2.28;;;6.50;51.60;;;;;;4923551;29;20043;-85
2022/01/10 12:01:56;;;;;;;4.18;2.35;;;6.50;51.50;;;;;;4925831;29;20043;-86
2022/01/10 12:04:26;;;;;;;4.90;2.22;;;6.50;51.50;;;;;;4925571;29;20053;-85
2022/01/10 12:06:53;;;;;;;3.28;1.95;;;6.50;51.50;;;;;;4922528;29;20543;-85
2022/01/10 12:09:20;;;;;;;3.50;2.47;;;6.50;51.60;;;;;;4896618;29;20087;-85
2022/01/10 12:11:48;;;;;;;3.75;2.35;;;6.50;51.60;;;;;;4925078;29;20518;-85
2022/01/10 12:14:14;;;;;;;3.60;2.25;;;6.50;51.60;;;;;;4896278;29;20032;-85
2022/01/10 12:16:41;;;;;;;2.88;2.22;;;6.50;51.70;;;;;;4906846;29;20038;-85
2022/01/10 12:19:08;;;;;;;4.00;2.40;;;6.50;51.70;;;;;;4924536;29;20643;-85
2022/01/10 12:21:34;;;;;;;3.50;2.35;;;6.50;51.70;;;;;;4909321;29;20035;-84
2022/01/10 12:24:01;;;;;;;6.30;3.05;;;6.50;51.70;;;;;;4907034;29;20052;-85
2022/01/10 12:26:28;;;;;;;2.70;2.28;;;6.40;51.70;;;;;;4923898;29;20040;-85
2022/01/10 12:28:56;;;;;;;4.40;2.55;;;6.50;52.00;;;;;;4926173;29;20054;-83
2022/01/10 12:31:26;;;;;;;5.75;3.03;;;6.50;51.70;;;;;;4911151;29;20064;-86
2022/01/10 12:33:53;;;;;;;4.60;3.05;;;6.40;51.70;;;;;;4909337;29;20068;-86
2022/01/10 12:36:20;;;;;;;3.90;2.67;;;6.40;51.80;;;;;;4908397;29;20032;-87
2022/01/10 12:38:54;;;;;;;4.68;2.90;;;6.40;51.90;;;;;;4935762;29;20020;-87
2022/01/10 12:41:21;;;;;;;4.13;2.65;;;6.40;51.90;;;;;;4934686;29;20040;-85
2022/01/10 12:43:50;;;;;;;5.90;2.90;;;6.40;51.90;;;;;;4925609;29;20043;-87
2022/01/10 12:46:17;;;;;;;4.45;2.95;;;6.40;51.90;;;;;;4931117;29;20039;-86
2022/01/10 12:48:50;;;;;;;4.18;2.60;;;6.40;51.90;;;;;;4908179;29;20447;-87
2022/01/10 12:51:18;;;;;;;4.75;2.90;;;6.40;51.90;;;;;;4906346;29;20032;-87
2022/01/10 12:53:48;;;;;;;4.18;2.67;;;6.40;51.80;;;;;;4924177;29;20051;-87
2022/01/10 12:56:18;;;;;;;3.80;2.83;;;6.40;51.80;;;;;;4925889;29;20102;-88
2022/01/10 12:58:44;;;;;;;3.85;2.40;;;6.40;51.90;;;;;;4922953;29;20043;-86
2022/01/10 13:01:14;;;;;;;3.42;2.63;;;6.40;51.80;;;;;;4906194;29;20032;-87
2022/01/10 13:03:46;;;;;;;3.42;2.38;;;6.40;51.80;;;;;;4924737;29;20086;-87
2022/01/10 13:06:12;;;;;;;4.18;2.47;;;6.40;51.80;;;;;;4924056;29;20043;-86
2022/01/10 13:09:03;;;;;;;5.18;2.95;;;6.40;51.80;;;;;;4907637;29;20039;-87
2022/01/10 13:11:33;;;;;;;3.67;2.63;;;6.40;51.80;;;;;;4921138;29;20115;-87
2022/01/10 13:14:11;;;;;;;5.15;3.00;;;6.40;51.80;;;;;;4922565;29;20032;-87
2022/01/10 13:16:38;;;;;;;4.38;2.78;;;6.40;51.70;;;;;;4907172;29;20519;-87
2022/01/10 13:19:07;;;;;;;5.75;2.95;;;6.40;51.70;;;;;;4909880;29;20510;-86